createdAt,value
2018-12-11T00:02:29.857Z,66.00
2018-12-11T00:05:01.734Z,66.51
2018-12-11T00:07:31.726Z,67.60
2018-12-11T00:10:01.743Z,66.40
2018-12-11T00:12:32.252Z,66.84
2018-12-11T00:15:02.373Z,67.13
2018-12-11T00:17:32.318Z,66.91
2018-12-11T00:20:02.367Z,67.54
2018-12-11T00:22:32.373Z,66.43
2018-12-11T00:25:02.382Z,66.31
2018-12-11T00:27:32.361Z,65.48
2018-12-11T00:30:02.451Z,65.77
2018-12-11T00:32:32.449Z,65.43
2018-12-11T00:35:02.525Z,65.29
2018-12-11T00:37:32.606Z,65.33
2018-12-11T00:40:02.680Z,64.95
2018-12-11T00:42:32.710Z,65.69
2018-12-11T00:45:02.715Z,65.09
2018-12-11T00:47:32.680Z,65.23
2018-12-11T00:50:02.613Z,66.07
2018-12-11T00:52:32.518Z,65.47
2018-12-11T00:55:02.451Z,65.25
2018-12-11T00:57:32.640Z,65.38
2018-12-11T01:00:02.763Z,64.80
2018-12-11T01:02:32.749Z,64.34
2018-12-11T01:05:02.772Z,64.51
2018-12-11T01:07:32.765Z,65.20
2018-12-11T01:12:50.452Z,64.33
2018-12-11T01:15:21.663Z,64.69
2018-12-11T01:20:20.594Z,64.71
2018-12-11T01:22:50.548Z,64.75
2018-12-11T01:25:20.634Z,64.41
2018-12-11T01:27:50.546Z,64.59
2018-12-11T01:30:20.568Z,64.77
2018-12-11T01:32:50.580Z,64.06
2018-12-11T01:35:20.593Z,64.84
2018-12-11T01:37:50.518Z,64.34
2018-12-11T01:40:20.448Z,64.65
2018-12-11T01:42:50.433Z,64.28
2018-12-11T01:45:20.375Z,64.80
2018-12-11T01:47:50.366Z,63.92
2018-12-11T01:50:20.374Z,63.62
2018-12-11T01:52:50.498Z,64.12
2018-12-11T01:55:20.436Z,63.59
2018-12-11T01:57:50.416Z,62.78
2018-12-11T02:03:08.068Z,63.10
2018-12-11T02:05:38.017Z,63.65
2018-12-11T02:08:08.033Z,63.44
2018-12-11T02:10:38.036Z,62.66
2018-12-11T02:13:08.052Z,62.85
2018-12-11T02:15:37.963Z,62.82
2018-12-11T02:18:08.262Z,63.01
2018-12-11T02:23:23.737Z,62.76
2018-12-11T02:25:53.797Z,63.08
2018-12-11T02:28:23.790Z,62.92
2018-12-11T02:30:54.292Z,64.20
2018-12-11T02:33:24.431Z,63.20
2018-12-11T02:35:54.475Z,62.25
2018-12-11T02:38:24.669Z,62.75
2018-12-11T02:40:54.704Z,62.65
2018-12-11T02:43:24.785Z,62.99
2018-12-11T02:45:54.698Z,62.56
2018-12-11T02:48:24.992Z,62.06
2018-12-11T02:50:54.972Z,62.27
2018-12-11T02:53:25.287Z,62.27
2018-12-11T02:55:55.406Z,62.51
2018-12-11T02:58:25.481Z,62.76
2018-12-11T03:00:55.474Z,62.29
2018-12-11T03:03:25.570Z,62.05
2018-12-11T03:05:55.557Z,61.83
2018-12-11T03:08:25.581Z,61.81
2018-12-11T03:10:55.497Z,61.57
2018-12-11T03:13:25.527Z,60.91
2018-12-11T03:15:55.601Z,60.56
2018-12-11T03:18:25.652Z,60.69
2018-12-11T03:20:55.572Z,61.20
2018-12-11T03:23:25.734Z,61.42
2018-12-11T03:25:55.728Z,60.56
2018-12-11T03:28:25.633Z,62.33
2018-12-11T03:30:55.626Z,61.54
2018-12-11T03:33:25.838Z,62.24
2018-12-11T03:35:55.757Z,62.53
2018-12-11T03:38:26.558Z,62.08
2018-12-11T03:40:56.733Z,61.64
2018-12-11T03:43:26.694Z,62.04
2018-12-11T03:45:56.729Z,61.64
2018-12-11T03:48:26.835Z,62.08
2018-12-11T03:50:56.818Z,62.17
2018-12-11T03:53:26.844Z,62.42
2018-12-11T03:55:57.876Z,61.90
2018-12-11T03:58:28.026Z,62.19
2018-12-11T04:00:58.005Z,63.08
2018-12-11T04:03:28.364Z,62.91
2018-12-11T04:05:58.278Z,62.65
2018-12-11T04:08:28.434Z,61.98
2018-12-11T04:10:58.344Z,61.64
2018-12-11T04:13:28.465Z,61.24
2018-12-11T04:15:58.398Z,61.52
2018-12-11T04:18:28.449Z,61.18
2018-12-11T04:20:58.404Z,61.73
2018-12-11T04:23:28.547Z,61.70
2018-12-11T04:25:58.460Z,61.58
2018-12-11T04:28:28.756Z,61.60
2018-12-11T04:30:58.815Z,62.43
2018-12-11T04:33:29.052Z,62.58
2018-12-11T04:35:58.970Z,62.77
2018-12-11T04:38:29.052Z,61.80
2018-12-11T04:40:58.979Z,62.16
2018-12-11T04:43:29.141Z,62.12
2018-12-11T04:45:59.166Z,61.57
2018-12-11T04:48:29.227Z,61.78
2018-12-11T04:50:59.227Z,61.86
2018-12-11T04:53:29.131Z,61.71
2018-12-11T04:55:59.056Z,62.40
2018-12-11T04:58:29.246Z,61.99
2018-12-11T05:00:59.180Z,62.66
2018-12-11T05:03:29.351Z,62.05
2018-12-11T05:05:59.282Z,62.71
2018-12-11T05:08:29.270Z,62.19
2018-12-11T05:10:59.197Z,62.29
2018-12-11T05:13:29.313Z,63.40
2018-12-11T05:15:59.253Z,62.32
2018-12-11T05:18:29.317Z,62.48
2018-12-11T05:21:00.380Z,62.48
2018-12-11T05:26:16.052Z,63.19
2018-12-11T05:31:46.645Z,62.65
2018-12-11T05:34:16.555Z,63.27
2018-12-11T05:36:46.468Z,63.24
2018-12-11T05:39:16.493Z,63.15
2018-12-11T05:41:46.725Z,63.78
2018-12-11T05:44:16.686Z,63.61
2018-12-11T05:46:46.723Z,62.77
2018-12-11T05:49:16.672Z,63.29
2018-12-11T05:51:46.581Z,63.24
2018-12-11T05:54:16.657Z,62.91
2018-12-11T05:56:46.681Z,62.87
2018-12-11T05:59:16.595Z,62.93
2018-12-11T06:01:46.681Z,63.28
2018-12-11T06:04:16.709Z,63.38
2018-12-11T06:06:46.624Z,63.14
2018-12-11T06:09:16.594Z,63.67
2018-12-11T06:11:46.702Z,63.36
2018-12-11T06:14:16.676Z,63.39
2018-12-11T06:16:46.752Z,63.92
2018-12-11T06:19:17.830Z,64.22
2018-12-11T06:21:47.877Z,63.92
2018-12-11T06:24:17.812Z,63.93
2018-12-11T06:26:47.744Z,63.20
2018-12-11T06:29:17.664Z,64.06
2018-12-11T06:31:47.669Z,64.17
2018-12-11T06:34:17.584Z,63.63
2018-12-11T06:36:48.074Z,64.08
2018-12-11T06:39:18.076Z,63.80
2018-12-11T06:41:48.289Z,64.02
2018-12-11T06:44:18.213Z,64.02
2018-12-11T06:46:48.264Z,63.53
2018-12-11T06:49:18.172Z,64.02
2018-12-11T06:51:48.180Z,63.69
2018-12-11T06:54:18.085Z,63.69
2018-12-11T06:56:47.992Z,63.43
2018-12-11T06:59:17.920Z,63.45
2018-12-11T07:01:47.844Z,63.02
2018-12-11T07:04:17.819Z,63.24
2018-12-11T07:06:47.784Z,63.23
2018-12-11T07:09:17.757Z,63.63
2018-12-11T07:11:47.763Z,63.14
2018-12-11T07:14:17.677Z,63.44
2018-12-11T07:16:47.609Z,63.27
2018-12-11T07:19:17.557Z,64.05
2018-12-11T07:21:47.458Z,63.90
2018-12-11T07:24:17.452Z,63.67
2018-12-11T07:26:47.369Z,63.23
2018-12-11T07:29:17.285Z,63.12
2018-12-11T07:31:47.256Z,63.56
2018-12-11T07:34:17.200Z,63.36
2018-12-11T07:36:47.296Z,63.13
2018-12-11T07:39:17.296Z,63.18
2018-12-11T07:41:47.322Z,63.54
2018-12-11T07:44:17.575Z,63.45
2018-12-11T07:46:47.509Z,62.91
2018-12-11T07:49:17.431Z,63.07
2018-12-11T07:51:47.358Z,63.44
2018-12-11T07:54:17.319Z,63.48
2018-12-11T07:56:47.240Z,63.50
2018-12-11T07:59:17.240Z,63.11
2018-12-11T08:01:47.233Z,63.65
2018-12-11T08:04:17.176Z,63.76
2018-12-11T08:06:47.426Z,64.06
2018-12-11T08:09:17.349Z,64.18
2018-12-11T08:11:47.362Z,63.79
2018-12-11T08:14:17.364Z,63.67
2018-12-11T08:16:47.281Z,63.22
2018-12-11T08:19:17.270Z,62.88
2018-12-11T08:21:47.289Z,63.34
2018-12-11T08:24:17.193Z,63.20
2018-12-11T08:26:47.156Z,63.62
2018-12-11T08:29:17.150Z,63.56
2018-12-11T08:31:47.157Z,62.88
2018-12-11T08:34:17.064Z,63.30
2018-12-11T08:36:47.140Z,63.65
2018-12-11T08:39:25.029Z,63.42
2018-12-11T08:41:55.018Z,63.63
2018-12-11T08:44:25.116Z,63.54
2018-12-11T08:46:55.142Z,64.06
2018-12-11T08:49:25.226Z,64.26
2018-12-11T08:51:55.161Z,64.85
2018-12-11T08:54:25.169Z,65.62
2018-12-11T08:56:55.090Z,64.82
2018-12-11T08:59:25.142Z,64.71
2018-12-11T09:01:55.193Z,65.03
2018-12-11T09:04:25.238Z,65.19
2018-12-11T09:06:55.216Z,65.46
2018-12-11T09:09:25.137Z,65.08
2018-12-11T09:11:55.156Z,64.23
2018-12-11T09:14:25.087Z,63.33
2018-12-11T09:16:55.045Z,62.79
2018-12-11T09:19:24.949Z,63.00
2018-12-11T09:21:54.884Z,63.20
2018-12-11T09:24:24.815Z,62.63
2018-12-11T09:26:54.843Z,62.97
2018-12-11T09:29:24.772Z,62.62
2018-12-11T09:31:54.706Z,63.27
2018-12-11T09:34:24.829Z,63.96
2018-12-11T09:36:54.851Z,63.68
2018-12-11T09:39:24.848Z,64.31
2018-12-11T09:41:54.813Z,62.74
2018-12-11T09:44:24.804Z,63.71
2018-12-11T09:46:54.713Z,63.81
2018-12-11T09:49:24.622Z,63.94
2018-12-11T09:51:54.580Z,63.31
2018-12-11T09:54:24.519Z,63.14
2018-12-11T09:56:54.456Z,63.37
2018-12-11T09:59:24.417Z,62.99
2018-12-11T10:01:54.782Z,63.01
2018-12-11T10:04:24.701Z,62.67
2018-12-11T10:06:54.681Z,63.12
2018-12-11T10:09:24.591Z,63.37
2018-12-11T10:11:54.722Z,63.68
2018-12-11T10:14:24.633Z,63.61
2018-12-11T10:16:54.596Z,63.91
2018-12-11T10:19:24.512Z,63.20
2018-12-11T10:21:54.613Z,62.75
2018-12-11T10:24:25.512Z,62.21
2018-12-11T10:26:56.631Z,62.75
2018-12-11T10:29:26.581Z,62.77
2018-12-11T10:31:56.619Z,62.10
2018-12-11T10:34:26.537Z,62.23
2018-12-11T10:36:56.449Z,63.65
2018-12-11T10:39:26.451Z,63.67
2018-12-11T10:41:56.393Z,63.01
2018-12-11T10:44:26.311Z,62.54
2018-12-11T10:46:56.284Z,61.61
2018-12-11T10:49:27.274Z,61.19
2018-12-11T10:51:57.607Z,60.76
2018-12-11T10:54:27.582Z,60.37
2018-12-11T10:56:57.491Z,61.53
2018-12-11T10:59:27.512Z,61.44
2018-12-11T11:04:52.460Z,60.19
2018-12-11T11:07:22.570Z,60.76
2018-12-11T11:09:52.501Z,61.05
2018-12-11T11:12:22.469Z,61.50
2018-12-11T11:14:52.538Z,61.89
2018-12-11T11:17:22.569Z,61.61
2018-12-11T11:19:52.490Z,61.99
2018-12-11T11:22:23.533Z,61.36
2018-12-11T11:24:53.468Z,61.34
2018-12-11T11:27:23.388Z,60.59
2018-12-11T11:29:53.381Z,60.50
2018-12-11T11:32:23.389Z,60.83
2018-12-11T11:34:53.301Z,60.17
2018-12-11T11:37:23.237Z,60.46
2018-12-11T11:39:53.149Z,61.23
2018-12-11T11:42:23.336Z,61.16
2018-12-11T11:44:53.733Z,61.19
2018-12-11T11:47:23.737Z,59.95
2018-12-11T11:49:53.665Z,60.49
2018-12-11T11:52:23.583Z,58.98
2018-12-11T11:54:53.599Z,59.02
2018-12-11T11:57:29.576Z,59.15
2018-12-11T11:59:55.429Z,59.28
2018-12-11T12:02:25.402Z,59.89
2018-12-11T12:04:55.389Z,59.15
2018-12-11T12:07:25.300Z,59.32
2018-12-11T12:09:56.411Z,58.71
2018-12-11T12:12:26.329Z,58.49
2018-12-11T12:14:56.289Z,58.87
2018-12-11T12:17:26.205Z,59.44
2018-12-11T12:19:56.122Z,59.29
2018-12-11T12:22:26.020Z,58.14
2018-12-11T12:24:55.960Z,58.82
2018-12-11T12:27:25.854Z,59.27
2018-12-11T12:29:55.784Z,59.71
2018-12-11T12:32:26.277Z,58.67
2018-12-11T12:34:56.184Z,58.26
2018-12-11T12:37:26.088Z,58.00
2018-12-11T12:39:56.024Z,58.21
2018-12-11T12:42:25.938Z,58.11
2018-12-11T12:44:55.941Z,57.78
2018-12-11T12:47:26.012Z,58.44
2018-12-11T12:49:56.048Z,58.79
2018-12-11T12:52:25.957Z,58.40
2018-12-11T12:54:55.856Z,58.66
2018-12-11T12:57:25.783Z,59.64
2018-12-11T12:59:55.725Z,59.86
2018-12-11T13:02:25.732Z,59.63
2018-12-11T13:04:55.791Z,59.58
2018-12-11T13:10:10.988Z,59.23
2018-12-11T13:12:41.173Z,59.07
2018-12-11T13:15:11.184Z,59.48
2018-12-11T13:17:41.086Z,58.69
2018-12-11T13:20:11.077Z,59.08
2018-12-11T13:22:41.068Z,59.34
2018-12-11T13:25:11.125Z,58.54
2018-12-11T13:27:41.059Z,59.17
2018-12-11T13:30:11.127Z,58.25
2018-12-11T13:32:41.088Z,59.05
2018-12-11T13:35:11.095Z,59.60
2018-12-11T13:37:41.014Z,59.40
2018-12-11T13:40:12.132Z,59.21
2018-12-11T13:42:42.035Z,59.20
2018-12-11T13:45:12.154Z,59.56
2018-12-11T13:47:42.089Z,59.58
2018-12-11T13:50:12.242Z,59.45
2018-12-11T13:52:42.257Z,60.13
2018-12-11T13:55:12.345Z,61.01
2018-12-11T13:57:42.280Z,60.81
2018-12-11T14:00:12.282Z,60.43
2018-12-11T14:02:42.200Z,59.36
2018-12-11T14:05:12.373Z,59.17
2018-12-11T14:07:44.029Z,59.72
2018-12-11T14:13:03.364Z,59.58
2018-12-11T14:15:33.462Z,60.14
2018-12-11T14:18:06.842Z,59.19
2018-12-11T14:20:37.141Z,60.04
2018-12-11T14:23:08.390Z,59.37
2018-12-11T14:25:38.309Z,59.19
2018-12-11T14:28:08.436Z,59.05
2018-12-11T14:30:39.187Z,59.54
2018-12-11T14:33:09.157Z,59.13
2018-12-11T14:35:39.236Z,58.85
2018-12-11T14:38:09.226Z,59.12
2018-12-11T14:40:39.165Z,59.04
2018-12-11T14:43:09.070Z,58.93
2018-12-11T14:45:39.320Z,59.13
2018-12-11T14:48:10.763Z,59.12
2018-12-11T14:50:40.969Z,59.01
2018-12-11T14:53:10.861Z,59.05
2018-12-11T14:55:40.799Z,59.15
2018-12-11T14:58:10.698Z,59.19
2018-12-11T15:00:40.653Z,59.37
2018-12-11T15:03:13.007Z,59.28
2018-12-11T15:05:43.093Z,59.48
2018-12-11T15:08:13.028Z,59.36
2018-12-11T15:10:43.046Z,58.65
2018-12-11T15:13:12.949Z,58.82
2018-12-11T15:15:42.918Z,59.67
2018-12-11T15:18:12.821Z,59.68
2018-12-11T15:20:42.781Z,60.22
2018-12-11T15:23:12.741Z,59.97
2018-12-11T15:25:42.686Z,59.34
2018-12-11T15:28:12.885Z,58.83
2018-12-11T15:30:46.156Z,58.14
2018-12-11T15:33:16.056Z,58.29
2018-12-11T15:35:45.991Z,59.02
2018-12-11T15:38:15.904Z,58.33
2018-12-11T15:40:45.847Z,58.74
2018-12-11T15:43:16.016Z,58.68
2018-12-11T15:45:46.056Z,58.76
2018-12-11T15:48:16.564Z,58.40
2018-12-11T15:50:46.617Z,57.86
2018-12-11T15:53:16.588Z,57.96
2018-12-11T15:55:46.530Z,57.82
2018-12-11T15:58:24.813Z,57.96
2018-12-11T16:00:51.825Z,57.96
2018-12-11T16:03:21.811Z,58.61
2018-12-11T16:05:51.889Z,58.76
2018-12-11T16:08:21.996Z,58.28
2018-12-11T16:10:53.380Z,58.10
2018-12-11T16:13:23.316Z,59.38
2018-12-11T16:15:53.375Z,58.99
2018-12-11T16:18:23.433Z,58.73
2018-12-11T16:20:53.491Z,58.93
2018-12-11T16:23:23.465Z,58.11
2018-12-11T16:25:58.186Z,58.56
2018-12-11T16:28:28.974Z,59.35
2018-12-11T16:30:59.012Z,59.73
2018-12-11T16:33:28.928Z,60.37
2018-12-11T16:35:59.117Z,59.86
2018-12-11T16:38:29.169Z,59.03
2018-12-11T16:40:59.445Z,59.04
2018-12-11T16:43:29.434Z,59.41
2018-12-11T16:45:59.604Z,59.67
2018-12-11T16:48:29.645Z,58.89
2018-12-11T16:50:59.621Z,58.90
2018-12-11T16:53:29.556Z,59.31
2018-12-11T16:55:59.581Z,58.93
2018-12-11T16:58:29.483Z,59.71
2018-12-11T17:00:59.595Z,59.81
2018-12-11T17:03:29.501Z,59.94
2018-12-11T17:05:59.432Z,59.52
2018-12-11T17:11:14.387Z,59.09
2018-12-11T17:13:44.904Z,59.85
2018-12-11T17:19:00.233Z,59.84
2018-12-11T17:21:30.206Z,59.99
2018-12-11T17:24:00.105Z,60.48
2018-12-11T17:26:30.122Z,60.08
2018-12-11T17:29:00.085Z,59.54
2018-12-11T17:31:30.048Z,60.64
2018-12-11T17:33:59.958Z,61.24
2018-12-11T17:36:29.937Z,61.63
2018-12-11T17:38:59.989Z,61.79
2018-12-11T17:41:30.005Z,61.42
2018-12-11T17:43:59.895Z,61.60
2018-12-11T17:46:29.850Z,61.92
2018-12-11T17:48:59.793Z,60.63
2018-12-11T17:51:29.854Z,60.41
2018-12-11T17:53:59.789Z,60.51
2018-12-11T17:56:29.743Z,60.42
2018-12-11T17:58:59.977Z,61.40
2018-12-11T18:04:19.789Z,60.68
2018-12-11T18:06:49.837Z,60.46
2018-12-11T18:09:19.822Z,60.56
2018-12-11T18:11:49.816Z,60.54
2018-12-11T18:14:19.884Z,60.55
2018-12-11T18:16:50.764Z,59.98
2018-12-11T18:19:20.665Z,59.91
2018-12-11T18:21:50.617Z,60.41
2018-12-11T18:24:20.537Z,60.00
2018-12-11T18:26:50.497Z,59.67
2018-12-11T18:29:20.477Z,60.32
2018-12-11T18:31:54.614Z,60.08
2018-12-11T18:34:24.877Z,60.00
2018-12-11T18:36:55.038Z,60.26
2018-12-11T18:39:25.026Z,60.58
2018-12-11T18:41:54.997Z,60.22
2018-12-11T18:44:25.049Z,60.80
2018-12-11T18:46:55.292Z,60.51
2018-12-11T18:49:25.335Z,61.02
2018-12-11T18:51:55.472Z,61.42
2018-12-11T18:54:25.495Z,60.51
2018-12-11T18:56:55.417Z,61.55
2018-12-11T18:59:25.343Z,61.93
2018-12-11T19:01:55.319Z,61.29
2018-12-11T19:04:26.759Z,61.26
2018-12-11T19:09:41.821Z,62.29
2018-12-11T19:12:11.818Z,61.85
2018-12-11T19:14:41.833Z,62.29
2018-12-11T19:17:13.045Z,62.24
2018-12-11T19:19:43.157Z,63.31
2018-12-11T19:22:13.117Z,63.48
2018-12-11T19:24:48.653Z,63.91
2018-12-11T19:27:18.645Z,64.09
2018-12-11T19:29:48.747Z,63.48
2018-12-11T19:32:18.869Z,63.56
2018-12-11T19:34:51.280Z,63.58
2018-12-11T19:37:21.298Z,63.62
2018-12-11T19:39:51.259Z,63.41
2018-12-11T19:42:21.456Z,63.77
2018-12-11T19:44:51.545Z,63.85
2018-12-11T19:47:21.736Z,64.16
2018-12-11T19:49:51.717Z,64.37
2018-12-11T19:52:21.681Z,64.13
2018-12-11T19:54:51.802Z,64.44
2018-12-11T19:57:21.814Z,64.19
2018-12-11T19:59:51.765Z,64.12
2018-12-11T20:02:21.849Z,63.97
2018-12-11T20:04:51.905Z,64.22
2018-12-11T20:07:21.865Z,64.12
2018-12-11T20:10:28.657Z,63.98
2018-12-11T20:12:58.931Z,64.69
2018-12-11T20:15:28.916Z,64.49
2018-12-11T20:17:59.016Z,64.01
2018-12-11T20:20:31.105Z,63.86
2018-12-11T20:23:01.254Z,63.52
2018-12-11T20:25:31.165Z,63.18
2018-12-11T20:28:01.161Z,63.42
2018-12-11T20:30:31.129Z,63.94
2018-12-11T20:33:01.227Z,64.50
2018-12-11T20:35:31.293Z,64.37
2018-12-11T20:38:01.325Z,64.95
2018-12-11T20:40:31.285Z,64.86
2018-12-11T20:43:01.916Z,65.43
2018-12-11T20:45:31.776Z,65.04
2018-12-11T20:48:01.841Z,64.55
2018-12-11T20:50:31.901Z,64.25
2018-12-11T20:53:01.842Z,65.16
2018-12-11T20:55:31.780Z,65.09
2018-12-11T20:58:01.731Z,64.15
2018-12-11T21:00:34.049Z,64.52
2018-12-11T21:03:04.169Z,64.68
2018-12-11T21:05:34.184Z,64.15
2018-12-11T21:08:04.360Z,64.53
2018-12-11T21:10:34.295Z,64.08
2018-12-11T21:13:04.300Z,64.52
2018-12-11T21:15:34.235Z,64.55
2018-12-11T21:18:04.584Z,64.66
2018-12-11T21:20:34.493Z,64.07
2018-12-11T21:23:04.538Z,64.14
2018-12-11T21:25:34.476Z,64.18
2018-12-11T21:28:04.377Z,64.47
2018-12-11T21:30:34.325Z,64.36
2018-12-11T21:33:04.632Z,63.99
2018-12-11T21:35:34.581Z,64.24
2018-12-11T21:38:04.697Z,63.31
2018-12-11T21:40:34.862Z,63.64
2018-12-11T21:43:04.849Z,63.52
2018-12-11T21:45:34.800Z,63.42
2018-12-11T21:48:04.708Z,62.91
2018-12-11T21:50:34.709Z,63.50
2018-12-11T21:53:04.685Z,63.82
2018-12-11T21:55:34.710Z,63.05
2018-12-11T21:58:04.783Z,63.13
2018-12-11T22:00:34.735Z,63.57
2018-12-11T22:03:04.661Z,63.63
2018-12-11T22:05:34.712Z,63.02
2018-12-11T22:08:04.597Z,63.18
2018-12-11T22:10:34.657Z,62.43
2018-12-11T22:13:04.609Z,62.97
2018-12-11T22:15:34.525Z,63.89
2018-12-11T22:18:04.497Z,63.31
2018-12-11T22:20:34.485Z,63.03
2018-12-11T22:23:04.374Z,63.31
2018-12-11T22:25:34.288Z,64.04
2018-12-11T22:28:04.192Z,63.73
2018-12-11T22:30:34.129Z,63.19
2018-12-11T22:33:04.077Z,63.74
2018-12-11T22:35:33.997Z,64.07
2018-12-11T22:38:03.971Z,63.26
2018-12-11T22:40:35.223Z,63.33
2018-12-11T22:43:05.203Z,63.58
2018-12-11T22:45:35.125Z,63.47
2018-12-11T22:50:51.375Z,63.34
2018-12-11T22:53:22.016Z,63.48
2018-12-11T23:00:57.147Z,64.68
2018-12-11T23:03:37.046Z,64.14
2018-12-11T23:06:07.584Z,63.55
2018-12-11T23:08:37.904Z,63.80
2018-12-11T23:11:07.888Z,63.93
2018-12-11T23:13:38.013Z,64.04
2018-12-11T23:16:08.400Z,63.45
2018-12-11T23:18:38.311Z,63.22
2018-12-11T23:21:08.228Z,63.21
2018-12-11T23:23:38.685Z,62.88
2018-12-11T23:26:08.604Z,62.69
2018-12-11T23:28:38.522Z,62.28
2018-12-11T23:31:08.518Z,62.54
2018-12-11T23:33:38.439Z,63.01
2018-12-11T23:36:08.418Z,63.13
2018-12-11T23:38:39.369Z,63.25
2018-12-11T23:41:09.461Z,63.48
2018-12-11T23:43:39.500Z,63.37
2018-12-11T23:46:14.085Z,63.45
2018-12-11T23:48:44.049Z,63.25
2018-12-11T23:51:14.011Z,63.33
2018-12-11T23:53:43.916Z,63.70
2018-12-11T23:56:13.840Z,63.88
2018-12-11T23:58:44.960Z,63.98
